Terminal Aerodrome Forecast
Issued by NWS Cleveland, OH

Home | Current Version | Previous Version | Text Only | Print | Product List | Glossary On
Versions: 1 2 3 4 5 6 7 8 9 10 11 12 13 14 15 16 17 18
319
FTUS41 KCLE 200923 AAA
TAFMFD
TAF AMD
KMFD 200923Z 2009/2106 12010KT 4SM -RA BR OVC040
     FM201000 12010KT 2SM -RA BR OVC020
     FM201300 14010KT 4SM -RA BR OVC004
     FM201500 20010KT 4SM BR OVC004
     FM202000 20008KT P6SM OVC007
     FM202300 18006KT 4SM BR OVC012=

USA.gov is the U.S. government's official web portal to all federal, state and local government web resources and services.